KLM213 EGKK-EDDF
Flight info
| Callsign | KLM213 |
|---|---|
| Flight time | 0h 58m |
| Altitude | 31000 |
| Route | MIMFO Y312 DVR UL9 KONAN DCT KOK UL607 FERDI DCT SPI T180 NIVNU/N0444F230 T847 IMCOM IMCOM1A |
| Aircraft | B77W/H-SDE1E2E3FGHIJ2J3J4J5M1RWXY/LB1D1 |
Departure
| Time | 2026-05-04 03:08 |
|---|---|
| Airport | London Gatwick Airport (EGKK) |
Arrival
| Time | 2026-05-04 04:06 |
|---|---|
| Airport | Frankfurt Main Airport (EDDF) |
| Time | Latitude | Longitude | Altitude | Speed | Heading |
|---|---|---|---|---|---|
| 2026-05-04 02:44 | 51.15620 | -0.16686 | 210 ft | 0 kts | 168° |
| 2026-05-04 02:57 | 51.15625 | -0.16687 | 209 ft | 3 kts | 167° |
| 2026-05-04 02:57 | 51.15645 | -0.16693 | 221 ft | 3 kts | 171° |
| 2026-05-04 02:58 | 51.15665 | -0.16697 | 222 ft | 3 kts | 180° |
| 2026-05-04 02:58 | 51.15681 | -0.16694 | 220 ft | 2 kts | 209° |
| 2026-05-04 02:58 | 51.15692 | -0.16679 | 223 ft | 2 kts | 244° |
| 2026-05-04 02:58 | 51.15697 | -0.16661 | 223 ft | 1 kts | 255° |
| 2026-05-04 02:59 | 51.15699 | -0.16647 | 221 ft | 1 kts | 257° |
| 2026-05-04 02:59 | 51.15701 | -0.16634 | 220 ft | 1 kts | 258° |
| 2026-05-04 02:59 | 51.15701 | -0.16630 | 220 ft | 0 kts | 258° |
| 2026-05-04 03:02 | 51.15698 | -0.16651 | 219 ft | 6 kts | 258° |
| 2026-05-04 03:02 | 51.15682 | -0.16766 | 215 ft | 15 kts | 257° |
| 2026-05-04 03:02 | 51.15656 | -0.16956 | 215 ft | 18 kts | 258° |
| 2026-05-04 03:03 | 51.15630 | -0.17141 | 219 ft | 12 kts | 257° |
| 2026-05-04 03:03 | 51.15612 | -0.17267 | 215 ft | 10 kts | 255° |
| 2026-05-04 03:03 | 51.15560 | -0.17319 | 219 ft | 10 kts | 185° |
| 2026-05-04 03:03 | 51.15493 | -0.17300 | 212 ft | 10 kts | 166° |
| 2026-05-04 03:04 | 51.15427 | -0.17275 | 219 ft | 10 kts | 166° |
| 2026-05-04 03:04 | 51.15360 | -0.17251 | 216 ft | 10 kts | 168° |
| 2026-05-04 03:04 | 51.15294 | -0.17227 | 213 ft | 10 kts | 162° |
| 2026-05-04 03:04 | 51.15257 | -0.17145 | 214 ft | 10 kts | 97° |
| 2026-05-04 03:05 | 51.15274 | -0.17040 | 219 ft | 10 kts | 71° |
| 2026-05-04 03:05 | 51.15288 | -0.16932 | 214 ft | 10 kts | 78° |
| 2026-05-04 03:05 | 51.15284 | -0.16859 | 219 ft | 0 kts | 119° |
| 2026-05-04 03:06 | 51.15278 | -0.16844 | 219 ft | 4 kts | 124° |
| 2026-05-04 03:06 | 51.15245 | -0.16819 | 216 ft | 7 kts | 164° |
| 2026-05-04 03:06 | 51.15183 | -0.16797 | 217 ft | 11 kts | 169° |
| 2026-05-04 03:07 | 51.15129 | -0.16815 | 222 ft | 9 kts | 229° |
| 2026-05-04 03:07 | 51.15104 | -0.16937 | 217 ft | 15 kts | 256° |
| 2026-05-04 03:07 | 51.15048 | -0.17342 | 218 ft | 71 kts | 258° |
| 2026-05-04 03:07 | 51.14890 | -0.18487 | 216 ft | 139 kts | 257° |
| 2026-05-04 03:08 | 51.14635 | -0.20260 | 338 ft | 178 kts | 256° |
| 2026-05-04 03:08 | 51.14122 | -0.22041 | 837 ft | 182 kts | 221° |
| 2026-05-04 03:08 | 51.12946 | -0.22693 | 1411 ft | 188 kts | 173° |
| 2026-05-04 03:08 | 51.11807 | -0.21703 | 1934 ft | 197 kts | 127° |
| 2026-05-04 03:09 | 51.11383 | -0.19576 | 2161 ft | 217 kts | 84° |
| 2026-05-04 03:09 | 51.11977 | -0.17298 | 2389 ft | 236 kts | 54° |
| 2026-05-04 03:09 | 51.12995 | -0.15126 | 2859 ft | 250 kts | 53° |
| 2026-05-04 03:09 | 51.13972 | -0.12757 | 3458 ft | 262 kts | 59° |
| 2026-05-04 03:10 | 51.14835 | -0.10139 | 4140 ft | 270 kts | 65° |
| 2026-05-04 03:10 | 51.15569 | -0.07353 | 4907 ft | 275 kts | 70° |
| 2026-05-04 03:10 | 51.16197 | -0.04451 | 5694 ft | 278 kts | 73° |
| 2026-05-04 03:10 | 51.16743 | -0.01481 | 6481 ft | 281 kts | 76° |
| 2026-05-04 03:11 | 51.17236 | 0.01558 | 7210 ft | 285 kts | 77° |
| 2026-05-04 03:11 | 51.17693 | 0.04650 | 7946 ft | 288 kts | 78° |
| 2026-05-04 03:11 | 51.18127 | 0.07785 | 8689 ft | 291 kts | 79° |
| 2026-05-04 03:11 | 51.18548 | 0.10951 | 9451 ft | 294 kts | 79° |
| 2026-05-04 03:12 | 51.18963 | 0.14167 | 10157 ft | 298 kts | 79° |
| 2026-05-04 03:12 | 51.19376 | 0.17477 | 10543 ft | 314 kts | 82° |
| 2026-05-04 03:12 | 51.19502 | 0.21069 | 10718 ft | 336 kts | 92° |
| 2026-05-04 03:12 | 51.19482 | 0.22308 | 10783 ft | 344 kts | 94° |
| 2026-05-04 03:13 | 51.19420 | 0.24279 | 10880 ft | 356 kts | 95° |
| 2026-05-04 03:13 | 51.19245 | 0.28327 | 11230 ft | 375 kts | 95° |
| 2026-05-04 03:13 | 51.19052 | 0.32536 | 11910 ft | 385 kts | 95° |
| 2026-05-04 03:13 | 51.18868 | 0.36812 | 12839 ft | 389 kts | 95° |
| 2026-05-04 03:14 | 51.18697 | 0.41150 | 13816 ft | 393 kts | 95° |
| 2026-05-04 03:14 | 51.18539 | 0.45469 | 14636 ft | 398 kts | 95° |
| 2026-05-04 03:14 | 51.18336 | 0.49899 | 15417 ft | 404 kts | 97° |
| 2026-05-04 03:14 | 51.18032 | 0.54379 | 16201 ft | 409 kts | 98° |
| 2026-05-04 03:15 | 51.17685 | 0.58903 | 17008 ft | 415 kts | 99° |
| 2026-05-04 03:15 | 51.17322 | 0.63500 | 17794 ft | 420 kts | 99° |
| 2026-05-04 03:15 | 51.16958 | 0.68143 | 18548 ft | 426 kts | 99° |
| 2026-05-04 03:15 | 51.16594 | 0.72850 | 19238 ft | 430 kts | 99° |
| 2026-05-04 03:16 | 51.16230 | 0.77612 | 19958 ft | 434 kts | 99° |
| 2026-05-04 03:16 | 51.15867 | 0.82411 | 20640 ft | 439 kts | 99° |
| 2026-05-04 03:16 | 51.15501 | 0.87252 | 21327 ft | 443 kts | 99° |
| 2026-05-04 03:16 | 51.15130 | 0.92163 | 21993 ft | 448 kts | 99° |
| 2026-05-04 03:17 | 51.14754 | 0.97112 | 22638 ft | 453 kts | 99° |
| 2026-05-04 03:17 | 51.14372 | 1.02114 | 23286 ft | 458 kts | 99° |
| 2026-05-04 03:17 | 51.13984 | 1.07175 | 23856 ft | 462 kts | 99° |
| 2026-05-04 03:17 | 51.13589 | 1.12276 | 24348 ft | 467 kts | 100° |
| 2026-05-04 03:18 | 51.13187 | 1.17436 | 24854 ft | 471 kts | 101° |
| 2026-05-04 03:18 | 51.12780 | 1.22634 | 25342 ft | 476 kts | 101° |
| 2026-05-04 03:18 | 51.12367 | 1.27876 | 25823 ft | 480 kts | 101° |
| 2026-05-04 03:18 | 51.11947 | 1.33178 | 26271 ft | 484 kts | 102° |
| 2026-05-04 03:19 | 51.11521 | 1.38525 | 26744 ft | 489 kts | 102° |
| 2026-05-04 03:19 | 51.11089 | 1.43912 | 27183 ft | 493 kts | 102° |
| 2026-05-04 03:19 | 51.10652 | 1.49343 | 27619 ft | 497 kts | 103° |
| 2026-05-04 03:19 | 51.10213 | 1.54752 | 28034 ft | 501 kts | 103° |
| 2026-05-04 03:20 | 51.09763 | 1.60259 | 28436 ft | 504 kts | 103° |
| 2026-05-04 03:20 | 51.09309 | 1.65802 | 28823 ft | 508 kts | 104° |
| 2026-05-04 03:20 | 51.08846 | 1.71402 | 29195 ft | 511 kts | 104° |
| 2026-05-04 03:20 | 51.08382 | 1.77004 | 29628 ft | 513 kts | 104° |
| 2026-05-04 03:21 | 51.07913 | 1.82640 | 30125 ft | 512 kts | 105° |
| 2026-05-04 03:21 | 51.07445 | 1.88243 | 30588 ft | 511 kts | 104° |
| 2026-05-04 03:21 | 51.06975 | 1.93829 | 30966 ft | 511 kts | 104° |
| 2026-05-04 03:22 | 51.06017 | 2.05075 | 30942 ft | 512 kts | 104° |
| 2026-05-04 03:22 | 51.05053 | 2.16261 | 30942 ft | 511 kts | 104° |
| 2026-05-04 03:23 | 51.04075 | 2.27456 | 30944 ft | 511 kts | 105° |
| 2026-05-04 03:23 | 51.03254 | 2.36766 | 30946 ft | 512 kts | 105° |
| 2026-05-04 03:24 | 51.02094 | 2.49783 | 30941 ft | 512 kts | 105° |
| 2026-05-04 03:24 | 51.01083 | 2.61001 | 30944 ft | 513 kts | 105° |
| 2026-05-04 03:25 | 51.00160 | 2.70277 | 30936 ft | 509 kts | 109° |
| 2026-05-04 03:25 | 50.98530 | 2.81181 | 30937 ft | 507 kts | 111° |
| 2026-05-04 03:26 | 50.96775 | 2.92013 | 30940 ft | 507 kts | 111° |
| 2026-05-04 03:26 | 50.95048 | 3.02861 | 30938 ft | 508 kts | 111° |
| 2026-05-04 03:27 | 50.93347 | 3.13730 | 30939 ft | 508 kts | 110° |
| 2026-05-04 03:27 | 50.91649 | 3.24593 | 30937 ft | 508 kts | 110° |
| 2026-05-04 03:28 | 50.89940 | 3.35449 | 30939 ft | 508 kts | 110° |
| 2026-05-04 03:28 | 50.88215 | 3.46310 | 30935 ft | 508 kts | 110° |
| 2026-05-04 03:29 | 50.86491 | 3.57089 | 30942 ft | 508 kts | 110° |
| 2026-05-04 03:29 | 50.84746 | 3.67927 | 30943 ft | 508 kts | 110° |
| 2026-05-04 03:30 | 50.82993 | 3.78748 | 30946 ft | 508 kts | 110° |
| 2026-05-04 03:30 | 50.81222 | 3.89576 | 30949 ft | 509 kts | 110° |
| 2026-05-04 03:31 | 50.79438 | 4.00411 | 30954 ft | 509 kts | 110° |
| 2026-05-04 03:31 | 50.77650 | 4.11226 | 30952 ft | 509 kts | 110° |
| 2026-05-04 03:32 | 50.75851 | 4.22058 | 30961 ft | 510 kts | 110° |
| 2026-05-04 03:32 | 50.74039 | 4.32895 | 30966 ft | 510 kts | 110° |
| 2026-05-04 03:33 | 50.72217 | 4.43724 | 30963 ft | 511 kts | 110° |
| 2026-05-04 03:33 | 50.70382 | 4.54565 | 30960 ft | 511 kts | 110° |
| 2026-05-04 03:34 | 50.68538 | 4.65391 | 30964 ft | 511 kts | 110° |
| 2026-05-04 03:34 | 50.66682 | 4.76219 | 30963 ft | 511 kts | 110° |
| 2026-05-04 03:35 | 50.64819 | 4.87021 | 30960 ft | 511 kts | 110° |
| 2026-05-04 03:35 | 50.62944 | 4.97824 | 30958 ft | 511 kts | 110° |
| 2026-05-04 03:36 | 50.61063 | 5.08597 | 30960 ft | 510 kts | 110° |
| 2026-05-04 03:36 | 50.59188 | 5.19272 | 30959 ft | 509 kts | 110° |
| 2026-05-04 03:37 | 50.57292 | 5.30001 | 30967 ft | 509 kts | 110° |
| 2026-05-04 03:37 | 50.55389 | 5.40708 | 30961 ft | 508 kts | 110° |
| 2026-05-04 03:38 | 50.53479 | 5.51393 | 30963 ft | 508 kts | 110° |
| 2026-05-04 03:38 | 50.51562 | 5.62087 | 30965 ft | 508 kts | 110° |
| 2026-05-04 03:39 | 50.49958 | 5.72908 | 30961 ft | 509 kts | 107° |
| 2026-05-04 03:39 | 50.48466 | 5.83795 | 30957 ft | 509 kts | 107° |
| 2026-05-04 03:40 | 50.46960 | 5.94648 | 30960 ft | 509 kts | 107° |
| 2026-05-04 03:40 | 50.45421 | 6.05501 | 30961 ft | 509 kts | 107° |
| 2026-05-04 03:41 | 50.43864 | 6.16337 | 30958 ft | 509 kts | 107° |
| 2026-05-04 03:41 | 50.42296 | 6.27168 | 30966 ft | 510 kts | 107° |
| 2026-05-04 03:42 | 50.40717 | 6.38007 | 30966 ft | 510 kts | 107° |
| 2026-05-04 03:42 | 50.39141 | 6.48759 | 30965 ft | 509 kts | 108° |
| 2026-05-04 03:43 | 50.37544 | 6.59579 | 30967 ft | 509 kts | 108° |
| 2026-05-04 03:43 | 50.35941 | 6.70359 | 30965 ft | 508 kts | 108° |
| 2026-05-04 03:44 | 50.34330 | 6.81122 | 30977 ft | 507 kts | 108° |
| 2026-05-04 03:44 | 50.32713 | 6.91849 | 30992 ft | 506 kts | 108° |
| 2026-05-04 03:45 | 50.31090 | 7.02541 | 30985 ft | 505 kts | 108° |
| 2026-05-04 03:45 | 50.30271 | 7.07904 | 30570 ft | 511 kts | 108° |
| 2026-05-04 03:45 | 50.29435 | 7.13351 | 29733 ft | 516 kts | 107° |
| 2026-05-04 03:45 | 50.28604 | 7.18771 | 29087 ft | 508 kts | 107° |
| 2026-05-04 03:46 | 50.27786 | 7.24102 | 28493 ft | 501 kts | 107° |
| 2026-05-04 03:46 | 50.26977 | 7.29358 | 27900 ft | 494 kts | 107° |
| 2026-05-04 03:46 | 50.26174 | 7.34544 | 27320 ft | 488 kts | 108° |
| 2026-05-04 03:46 | 50.25377 | 7.39675 | 26757 ft | 482 kts | 108° |
| 2026-05-04 03:47 | 50.24587 | 7.44736 | 26145 ft | 478 kts | 108° |
| 2026-05-04 03:47 | 50.23799 | 7.49760 | 25569 ft | 474 kts | 107° |
| 2026-05-04 03:47 | 50.23015 | 7.54743 | 24996 ft | 469 kts | 107° |
| 2026-05-04 03:47 | 50.22239 | 7.59669 | 24447 ft | 465 kts | 108° |
| 2026-05-04 03:48 | 50.21467 | 7.64553 | 23909 ft | 461 kts | 108° |
| 2026-05-04 03:48 | 50.20701 | 7.69389 | 23290 ft | 458 kts | 108° |
| 2026-05-04 03:48 | 50.19936 | 7.74199 | 22690 ft | 454 kts | 107° |
| 2026-05-04 03:48 | 50.19176 | 7.78970 | 22124 ft | 450 kts | 108° |
| 2026-05-04 03:49 | 50.18425 | 7.83677 | 21585 ft | 445 kts | 108° |
| 2026-05-04 03:49 | 50.17677 | 7.88341 | 21055 ft | 441 kts | 108° |
| 2026-05-04 03:49 | 50.16933 | 7.92973 | 20525 ft | 438 kts | 108° |
| 2026-05-04 03:49 | 50.16205 | 7.97489 | 20023 ft | 434 kts | 108° |
| 2026-05-04 03:50 | 50.15468 | 8.02044 | 19499 ft | 432 kts | 108° |
| 2026-05-04 03:50 | 50.14727 | 8.06617 | 18976 ft | 429 kts | 108° |
| 2026-05-04 03:50 | 50.14006 | 8.11053 | 18473 ft | 427 kts | 108° |
| 2026-05-04 03:50 | 50.13275 | 8.15536 | 17896 ft | 425 kts | 107° |
| 2026-05-04 03:51 | 50.12548 | 8.19988 | 17348 ft | 422 kts | 107° |
| 2026-05-04 03:51 | 50.11827 | 8.24401 | 16825 ft | 419 kts | 107° |
| 2026-05-04 03:51 | 50.11107 | 8.28788 | 16294 ft | 416 kts | 107° |
| 2026-05-04 03:51 | 50.10445 | 8.33141 | 15801 ft | 412 kts | 102° |
| 2026-05-04 03:52 | 50.10297 | 8.37592 | 15289 ft | 412 kts | 88° |
| 2026-05-04 03:52 | 50.10712 | 8.41997 | 14799 ft | 411 kts | 77° |
| 2026-05-04 03:52 | 50.11634 | 8.46206 | 14290 ft | 409 kts | 70° |
| 2026-05-04 03:52 | 50.12668 | 8.50311 | 13796 ft | 407 kts | 69° |
| 2026-05-04 03:53 | 50.13695 | 8.54418 | 13240 ft | 404 kts | 70° |
| 2026-05-04 03:53 | 50.14692 | 8.58496 | 12723 ft | 402 kts | 70° |
| 2026-05-04 03:53 | 50.15668 | 8.62558 | 12220 ft | 399 kts | 70° |
| 2026-05-04 03:53 | 50.16628 | 8.66596 | 11731 ft | 396 kts | 70° |
| 2026-05-04 03:54 | 50.17579 | 8.70608 | 11246 ft | 393 kts | 70° |
| 2026-05-04 03:54 | 50.18517 | 8.74566 | 11014 ft | 383 kts | 70° |
| 2026-05-04 03:54 | 50.19425 | 8.78403 | 10857 ft | 372 kts | 70° |
| 2026-05-04 03:54 | 50.20304 | 8.82126 | 10698 ft | 361 kts | 70° |
| 2026-05-04 03:55 | 50.21161 | 8.85771 | 10551 ft | 352 kts | 70° |
| 2026-05-04 03:55 | 50.21990 | 8.89301 | 10392 ft | 342 kts | 70° |
| 2026-05-04 03:55 | 50.22797 | 8.92742 | 10261 ft | 333 kts | 70° |
| 2026-05-04 03:55 | 50.23582 | 8.96095 | 10124 ft | 324 kts | 70° |
| 2026-05-04 03:56 | 50.24345 | 8.99361 | 9943 ft | 317 kts | 70° |
| 2026-05-04 03:56 | 50.25100 | 9.02594 | 9574 ft | 316 kts | 71° |
| 2026-05-04 03:56 | 50.25523 | 9.05878 | 9188 ft | 307 kts | 95° |
| 2026-05-04 03:56 | 50.25055 | 9.09007 | 9041 ft | 292 kts | 117° |
| 2026-05-04 03:57 | 50.24006 | 9.11759 | 8596 ft | 295 kts | 134° |
| 2026-05-04 03:57 | 50.22437 | 9.13656 | 8276 ft | 279 kts | 159° |
| 2026-05-04 03:57 | 50.20766 | 9.15125 | 7930 ft | 273 kts | 153° |
| 2026-05-04 03:57 | 50.19038 | 9.16104 | 7436 ft | 261 kts | 185° |
| 2026-05-04 03:58 | 50.16455 | 9.13292 | 7062 ft | 226 kts | 251° |
| 2026-05-04 03:58 | 50.16094 | 9.10970 | 6851 ft | 217 kts | 257° |
| 2026-05-04 03:58 | 50.15755 | 9.08694 | 6605 ft | 213 kts | 255° |
| 2026-05-04 03:59 | 50.15342 | 9.06489 | 6300 ft | 212 kts | 252° |
| 2026-05-04 03:59 | 50.14872 | 9.04313 | 5946 ft | 212 kts | 251° |
| 2026-05-04 03:59 | 50.14374 | 9.02142 | 5599 ft | 212 kts | 250° |
| 2026-05-04 03:59 | 50.13869 | 8.99987 | 5263 ft | 212 kts | 250° |
| 2026-05-04 04:00 | 50.13357 | 8.97829 | 4922 ft | 212 kts | 250° |
| 2026-05-04 04:00 | 50.12844 | 8.95671 | 4569 ft | 213 kts | 250° |
| 2026-05-04 04:00 | 50.12340 | 8.93557 | 4346 ft | 207 kts | 250° |
| 2026-05-04 04:00 | 50.11846 | 8.91484 | 4181 ft | 198 kts | 250° |
| 2026-05-04 04:01 | 50.11386 | 8.89556 | 4043 ft | 185 kts | 250° |
| 2026-05-04 04:01 | 50.10948 | 8.87717 | 4004 ft | 181 kts | 249° |
| 2026-05-04 04:01 | 50.10501 | 8.85844 | 4032 ft | 190 kts | 250° |
| 2026-05-04 04:01 | 50.10042 | 8.83919 | 3761 ft | 184 kts | 249° |
| 2026-05-04 04:02 | 50.09615 | 8.82128 | 3514 ft | 167 kts | 249° |
| 2026-05-04 04:02 | 50.09231 | 8.80520 | 3302 ft | 153 kts | 249° |
| 2026-05-04 04:02 | 50.08857 | 8.78955 | 3144 ft | 154 kts | 249° |
| 2026-05-04 04:02 | 50.08492 | 8.77420 | 2995 ft | 149 kts | 249° |
| 2026-05-04 04:03 | 50.08143 | 8.75883 | 2826 ft | 152 kts | 251° |
| 2026-05-04 04:03 | 50.07807 | 8.74332 | 2636 ft | 150 kts | 249° |
| 2026-05-04 04:03 | 50.07438 | 8.72821 | 2478 ft | 149 kts | 248° |
| 2026-05-04 04:03 | 50.07053 | 8.71313 | 2256 ft | 151 kts | 247° |
| 2026-05-04 04:04 | 50.06685 | 8.69794 | 2005 ft | 149 kts | 249° |
| 2026-05-04 04:04 | 50.06329 | 8.68297 | 1773 ft | 147 kts | 248° |
| 2026-05-04 04:04 | 50.05960 | 8.66815 | 1557 ft | 148 kts | 250° |
| 2026-05-04 04:04 | 50.05617 | 8.65300 | 1345 ft | 150 kts | 248° |
| 2026-05-04 04:05 | 50.05229 | 8.63770 | 1120 ft | 153 kts | 248° |
| 2026-05-04 04:05 | 50.04870 | 8.62213 | 928 ft | 153 kts | 249° |
| 2026-05-04 04:05 | 50.04489 | 8.60664 | 678 ft | 153 kts | 249° |
| 2026-05-04 04:05 | 50.04122 | 8.59125 | 465 ft | 150 kts | 249° |
| 2026-05-04 04:06 | 50.03759 | 8.57614 | 370 ft | 144 kts | 249° |
| 2026-05-04 04:06 | 50.03454 | 8.56346 | 359 ft | 100 kts | 250° |
| 2026-05-04 04:06 | 50.03274 | 8.55600 | 356 ft | 50 kts | 249° |
| 2026-05-04 04:06 | 50.03181 | 8.55161 | 354 ft | 35 kts | 261° |
| 2026-05-04 04:07 | 50.03189 | 8.54870 | 350 ft | 15 kts | 278° |
| 2026-05-04 04:07 | 50.03202 | 8.54751 | 346 ft | 9 kts | 280° |
| 2026-05-04 04:07 | 50.03205 | 8.54726 | 354 ft | 2 kts | 280° |
| 2026-05-04 04:07 | 50.03207 | 8.54701 | 354 ft | 3 kts | 280° |
| 2026-05-04 04:08 | 50.03212 | 8.54663 | 345 ft | 4 kts | 280° |
| 2026-05-04 04:08 | 50.03220 | 8.54611 | 352 ft | 5 kts | 289° |
| 2026-05-04 04:08 | 50.03238 | 8.54560 | 354 ft | 5 kts | 307° |
| 2026-05-04 04:08 | 50.03266 | 8.54518 | 353 ft | 5 kts | 321° |
| 2026-05-04 04:09 | 50.03299 | 8.54490 | 348 ft | 6 kts | 338° |
| 2026-05-04 04:09 | 50.03335 | 8.54468 | 353 ft | 6 kts | 338° |
| 2026-05-04 04:09 | 50.03371 | 8.54447 | 350 ft | 6 kts | 340° |
| 2026-05-04 04:09 | 50.03408 | 8.54426 | 356 ft | 6 kts | 340° |
| 2026-05-04 04:10 | 50.03450 | 8.54402 | 353 ft | 7 kts | 340° |
| 2026-05-04 04:10 | 50.03517 | 8.54363 | 353 ft | 14 kts | 340° |
| 2026-05-04 04:10 | 50.03596 | 8.54318 | 355 ft | 10 kts | 340° |
| 2026-05-04 04:10 | 50.03657 | 8.54338 | 352 ft | 10 kts | 43° |
| 2026-05-04 04:11 | 50.03685 | 8.54432 | 354 ft | 10 kts | 69° |
| 2026-05-04 04:11 | 50.03711 | 8.54536 | 356 ft | 12 kts | 70° |
| 2026-05-04 04:11 | 50.03742 | 8.54672 | 359 ft | 15 kts | 70° |
| 2026-05-04 04:11 | 50.03768 | 8.54783 | 359 ft | 18 kts | 70° |
| 2026-05-04 04:12 | 50.03835 | 8.55055 | 360 ft | 21 kts | 70° |
| 2026-05-04 04:12 | 50.03869 | 8.55197 | 361 ft | 21 kts | 69° |
| 2026-05-04 04:12 | 50.03919 | 8.55410 | 359 ft | 21 kts | 70° |
| 2026-05-04 04:12 | 50.03970 | 8.55624 | 361 ft | 21 kts | 69° |
| 2026-05-04 04:13 | 50.04022 | 8.55835 | 360 ft | 18 kts | 69° |
| 2026-05-04 04:13 | 50.04057 | 8.55980 | 362 ft | 13 kts | 70° |
| 2026-05-04 04:13 | 50.04087 | 8.56115 | 363 ft | 13 kts | 70° |
| 2026-05-04 04:13 | 50.04117 | 8.56239 | 364 ft | 10 kts | 69° |
| 2026-05-04 04:14 | 50.04174 | 8.56277 | 362 ft | 10 kts | 351° |
| 2026-05-04 04:14 | 50.04237 | 8.56243 | 365 ft | 10 kts | 339° |
| 2026-05-04 04:14 | 50.04283 | 8.56189 | 366 ft | 8 kts | 297° |
| 2026-05-04 04:14 | 50.04299 | 8.56104 | 368 ft | 8 kts | 299° |
| 2026-05-04 04:15 | 50.04346 | 8.56054 | 368 ft | 8 kts | 336° |
| 2026-05-04 04:15 | 50.04401 | 8.56032 | 366 ft | 8 kts | 5° |
| 2026-05-04 04:15 | 50.04443 | 8.56090 | 367 ft | 8 kts | 60° |
| 2026-05-04 04:15 | 50.04466 | 8.56174 | 367 ft | 8 kts | 69° |
| 2026-05-04 04:16 | 50.04487 | 8.56258 | 365 ft | 8 kts | 69° |
| 2026-05-04 04:16 | 50.04507 | 8.56344 | 367 ft | 8 kts | 71° |
| 2026-05-04 04:16 | 50.04534 | 8.56424 | 368 ft | 8 kts | 47° |
| 2026-05-04 04:16 | 50.04581 | 8.56466 | 367 ft | 7 kts | 25° |
| 2026-05-04 04:17 | 50.04628 | 8.56470 | 365 ft | 7 kts | 339° |
| 2026-05-04 04:17 | 50.04673 | 8.56435 | 369 ft | 7 kts | 333° |
| 2026-05-04 04:17 | 50.04716 | 8.56406 | 368 ft | 7 kts | 341° |
| 2026-05-04 04:17 | 50.04740 | 8.56395 | 366 ft | 1 kts | 343° |
| 2026-05-04 04:18 | 50.04748 | 8.56391 | 368 ft | 1 kts | 342° |
| 2026-05-04 04:18 | 50.04754 | 8.56388 | 367 ft | 0 kts | 341° |